sensor_id;sensor_type;location;lat;lon;timestamp;temperature;humidity
11320;DHT22;5715;48.234;14.320;2023-12-22T00:00:50;5.50;99.90
11320;DHT22;5715;48.234;14.320;2023-12-22T00:03:45;5.40;99.90
11320;DHT22;5715;48.234;14.320;2023-12-22T00:06:36;5.40;99.90
11320;DHT22;5715;48.234;14.320;2023-12-22T00:09:27;5.30;99.90
11320;DHT22;5715;48.234;14.320;2023-12-22T00:12:36;5.30;99.90
11320;DHT22;5715;48.234;14.320;2023-12-22T00:15:26;5.30;99.90
11320;DHT22;5715;48.234;14.320;2023-12-22T00:18:13;5.30;99.90
11320;DHT22;5715;48.234;14.320;2023-12-22T00:21:04;5.30;99.90
11320;DHT22;5715;48.234;14.320;2023-12-22T00:23:52;5.30;99.90
11320;DHT22;5715;48.234;14.320;2023-12-22T00:26:54;5.30;99.90
11320;DHT22;5715;48.234;14.320;2023-12-22T00:29:51;5.30;99.90
11320;DHT22;5715;48.234;14.320;2023-12-22T00:32:48;5.20;99.90
11320;DHT22;5715;48.234;14.320;2023-12-22T00:36:00;5.20;99.90
11320;DHT22;5715;48.234;14.320;2023-12-22T00:38:54;5.20;99.90
11320;DHT22;5715;48.234;14.320;2023-12-22T00:41:43;5.20;99.90
11320;DHT22;5715;48.234;14.320;2023-12-22T00:44:53;5.20;99.90
11320;DHT22;5715;48.234;14.320;2023-12-22T00:47:41;5.30;99.90
11320;DHT22;5715;48.234;14.320;2023-12-22T00:50:43;5.40;99.90
11320;DHT22;5715;48.234;14.320;2023-12-22T00:53:34;5.40;99.90
11320;DHT22;5715;48.234;14.320;2023-12-22T00:56:36;5.50;99.90
11320;DHT22;5715;48.234;14.320;2023-12-22T00:59:27;5.50;99.90
11320;DHT22;5715;48.234;14.320;2023-12-22T01:02:18;5.40;99.90
11320;DHT22;5715;48.234;14.320;2023-12-22T01:05:13;5.50;99.90
11320;DHT22;5715;48.234;14.320;2023-12-22T01:08:05;5.50;99.90
11320;DHT22;5715;48.234;14.320;2023-12-22T01:10:53;5.40;99.90
11320;DHT22;5715;48.234;14.320;2023-12-22T01:13:42;5.40;99.90
11320;DHT22;5715;48.234;14.320;2023-12-22T01:16:37;5.30;99.90
11320;DHT22;5715;48.234;14.320;2023-12-22T01:19:28;5.30;99.90
11320;DHT22;5715;48.234;14.320;2023-12-22T01:22:26;5.30;99.90
11320;DHT22;5715;48.234;14.320;2023-12-22T01:25:27;5.30;99.90
11320;DHT22;5715;48.234;14.320;2023-12-22T01:28:23;5.30;99.90
11320;DHT22;5715;48.234;14.320;2023-12-22T01:31:13;5.30;99.90
11320;DHT22;5715;48.234;14.320;2023-12-22T01:34:04;5.20;99.90
11320;DHT22;5715;48.234;14.320;2023-12-22T01:37:01;5.20;99.90
11320;DHT22;5715;48.234;14.320;2023-12-22T01:39:51;5.20;99.90
11320;DHT22;5715;48.234;14.320;2023-12-22T01:43:05;5.20;99.90
11320;DHT22;5715;48.234;14.320;2023-12-22T01:46:05;5.10;99.90
11320;DHT22;5715;48.234;14.320;2023-12-22T01:48:58;5.10;99.90
11320;DHT22;5715;48.234;14.320;2023-12-22T01:51:49;5.00;99.90
11320;DHT22;5715;48.234;14.320;2023-12-22T01:54:38;5.00;99.90
11320;DHT22;5715;48.234;14.320;2023-12-22T01:57:33;5.00;99.90
11320;DHT22;5715;48.234;14.320;2023-12-22T02:00:37;5.10;99.90
11320;DHT22;5715;48.234;14.320;2023-12-22T02:03:25;5.10;99.90
11320;DHT22;5715;48.234;14.320;2023-12-22T02:06:13;5.10;99.90
11320;DHT22;5715;48.234;14.320;2023-12-22T02:09:01;5.10;99.90
11320;DHT22;5715;48.234;14.320;2023-12-22T02:11:51;5.10;99.90
11320;DHT22;5715;48.234;14.320;2023-12-22T02:14:38;5.10;99.90
11320;DHT22;5715;48.234;14.320;2023-12-22T02:18:26;5.20;99.90
11320;DHT22;5715;48.234;14.320;2023-12-22T02:21:04;5.30;99.90
11320;DHT22;5715;48.234;14.320;2023-12-22T02:23:51;5.40;99.90
11320;DHT22;5715;48.234;14.320;2023-12-22T02:26:45;5.40;99.90
11320;DHT22;5715;48.234;14.320;2023-12-22T02:29:40;5.40;99.90
11320;DHT22;5715;48.234;14.320;2023-12-22T02:32:45;5.40;99.90
11320;DHT22;5715;48.234;14.320;2023-12-22T02:35:37;5.30;99.90
11320;DHT22;5715;48.234;14.320;2023-12-22T02:38:29;5.20;99.90
11320;DHT22;5715;48.234;14.320;2023-12-22T02:41:19;5.20;99.90
11320;DHT22;5715;48.234;14.320;2023-12-22T02:44:07;5.30;99.90
11320;DHT22;5715;48.234;14.320;2023-12-22T02:46:55;5.30;99.90
11320;DHT22;5715;48.234;14.320;2023-12-22T02:49:43;5.30;99.90
11320;DHT22;5715;48.234;14.320;2023-12-22T02:52:31;5.40;99.90
11320;DHT22;5715;48.234;14.320;2023-12-22T02:55:19;5.40;99.90
11320;DHT22;5715;48.234;14.320;2023-12-22T02:58:07;5.40;99.90
11320;DHT22;5715;48.234;14.320;2023-12-22T03:00:55;5.50;99.90
11320;DHT22;5715;48.234;14.320;2023-12-22T03:03:42;5.40;99.90
11320;DHT22;5715;48.234;14.320;2023-12-22T03:06:30;5.50;99.90
11320;DHT22;5715;48.234;14.320;2023-12-22T03:09:17;5.50;99.90
11320;DHT22;5715;48.234;14.320;2023-12-22T03:12:06;5.50;99.90
11320;DHT22;5715;48.234;14.320;2023-12-22T03:14:55;5.40;99.90
11320;DHT22;5715;48.234;14.320;2023-12-22T03:17:42;5.50;99.90
11320;DHT22;5715;48.234;14.320;2023-12-22T03:20:30;5.40;99.90
11320;DHT22;5715;48.234;14.320;2023-12-22T03:23:18;5.40;99.90
11320;DHT22;5715;48.234;14.320;2023-12-22T03:26:05;5.30;99.90
11320;DHT22;5715;48.234;14.320;2023-12-22T03:28:53;5.30;99.90
11320;DHT22;5715;48.234;14.320;2023-12-22T03:31:41;5.30;99.90
11320;DHT22;5715;48.234;14.320;2023-12-22T03:34:28;5.20;99.90
11320;DHT22;5715;48.234;14.320;2023-12-22T03:37:16;5.20;99.90
11320;DHT22;5715;48.234;14.320;2023-12-22T03:40:04;5.10;99.90
11320;DHT22;5715;48.234;14.320;2023-12-22T03:42:52;5.10;99.90
11320;DHT22;5715;48.234;14.320;2023-12-22T03:45:39;5.10;99.90
11320;DHT22;5715;48.234;14.320;2023-12-22T03:48:27;5.00;99.90
11320;DHT22;5715;48.234;14.320;2023-12-22T03:51:15;5.00;99.90
11320;DHT22;5715;48.234;14.320;2023-12-22T03:54:02;5.00;99.90
11320;DHT22;5715;48.234;14.320;2023-12-22T03:56:50;5.00;99.90
11320;DHT22;5715;48.234;14.320;2023-12-22T03:59:38;5.00;99.90
11320;DHT22;5715;48.234;14.320;2023-12-22T04:02:25;4.90;99.90
11320;DHT22;5715;48.234;14.320;2023-12-22T04:05:13;4.90;99.90
11320;DHT22;5715;48.234;14.320;2023-12-22T04:08:00;4.80;99.90
11320;DHT22;5715;48.234;14.320;2023-12-22T04:10:48;4.80;99.90
11320;DHT22;5715;48.234;14.320;2023-12-22T04:13:36;4.70;99.90
11320;DHT22;5715;48.234;14.320;2023-12-22T04:16:23;4.60;99.90
11320;DHT22;5715;48.234;14.320;2023-12-22T04:19:11;4.60;99.90
11320;DHT22;5715;48.234;14.320;2023-12-22T04:21:59;4.50;99.90
11320;DHT22;5715;48.234;14.320;2023-12-22T04:24:46;4.50;99.90
11320;DHT22;5715;48.234;14.320;2023-12-22T04:27:35;4.50;99.90
11320;DHT22;5715;48.234;14.320;2023-12-22T04:30:22;4.50;99.90
11320;DHT22;5715;48.234;14.320;2023-12-22T04:33:10;4.50;99.90
11320;DHT22;5715;48.234;14.320;2023-12-22T04:35:58;4.50;99.90
11320;DHT22;5715;48.234;14.320;2023-12-22T04:38:46;4.50;99.90
11320;DHT22;5715;48.234;14.320;2023-12-22T04:41:33;4.40;99.90
11320;DHT22;5715;48.234;14.320;2023-12-22T04:44:21;4.40;99.90
11320;DHT22;5715;48.234;14.320;2023-12-22T04:47:08;4.40;99.90
11320;DHT22;5715;48.234;14.320;2023-12-22T04:49:56;4.40;99.90
11320;DHT22;5715;48.234;14.320;2023-12-22T04:52:44;4.50;99.90
11320;DHT22;5715;48.234;14.320;2023-12-22T04:55:31;4.50;99.90
11320;DHT22;5715;48.234;14.320;2023-12-22T04:58:19;4.40;99.90
11320;DHT22;5715;48.234;14.320;2023-12-22T05:01:07;4.40;99.90
11320;DHT22;5715;48.234;14.320;2023-12-22T05:03:54;4.40;99.90
11320;DHT22;5715;48.234;14.320;2023-12-22T05:06:42;4.40;99.90
11320;DHT22;5715;48.234;14.320;2023-12-22T05:09:29;4.40;99.90
11320;DHT22;5715;48.234;14.320;2023-12-22T05:12:17;4.40;99.90
11320;DHT22;5715;48.234;14.320;2023-12-22T05:15:05;4.40;99.90
11320;DHT22;5715;48.234;14.320;2023-12-22T05:17:53;4.40;99.90
11320;DHT22;5715;48.234;14.320;2023-12-22T05:20:41;4.50;99.90
11320;DHT22;5715;48.234;14.320;2023-12-22T05:23:28;4.40;99.90
11320;DHT22;5715;48.234;14.320;2023-12-22T05:26:17;4.40;99.90
11320;DHT22;5715;48.234;14.320;2023-12-22T05:29:05;4.30;99.90
11320;DHT22;5715;48.234;14.320;2023-12-22T05:31:55;4.40;99.90
11320;DHT22;5715;48.234;14.320;2023-12-22T05:34:43;4.30;99.90
11320;DHT22;5715;48.234;14.320;2023-12-22T05:37:30;4.30;99.90
11320;DHT22;5715;48.234;14.320;2023-12-22T05:40:18;4.30;99.90
11320;DHT22;5715;48.234;14.320;2023-12-22T05:43:06;4.30;99.90
11320;DHT22;5715;48.234;14.320;2023-12-22T05:45:54;4.30;99.90
11320;DHT22;5715;48.234;14.320;2023-12-22T05:48:41;4.30;99.90
11320;DHT22;5715;48.234;14.320;2023-12-22T05:51:35;4.30;99.90
11320;DHT22;5715;48.234;14.320;2023-12-22T05:54:24;4.30;99.90
11320;DHT22;5715;48.234;14.320;2023-12-22T05:57:12;4.30;99.90
11320;DHT22;5715;48.234;14.320;2023-12-22T06:00:03;4.30;99.90
11320;DHT22;5715;48.234;14.320;2023-12-22T06:02:54;4.30;99.90
11320;DHT22;5715;48.234;14.320;2023-12-22T06:05:42;4.20;99.90
11320;DHT22;5715;48.234;14.320;2023-12-22T06:08:30;4.20;99.90
11320;DHT22;5715;48.234;14.320;2023-12-22T06:11:18;4.20;99.90
11320;DHT22;5715;48.234;14.320;2023-12-22T06:14:06;4.20;99.90
11320;DHT22;5715;48.234;14.320;2023-12-22T06:16:53;4.10;99.90
11320;DHT22;5715;48.234;14.320;2023-12-22T06:19:43;4.10;99.90
11320;DHT22;5715;48.234;14.320;2023-12-22T06:22:31;4.10;99.90
11320;DHT22;5715;48.234;14.320;2023-12-22T06:25:19;4.10;99.90
11320;DHT22;5715;48.234;14.320;2023-12-22T06:28:07;4.10;99.90
11320;DHT22;5715;48.234;14.320;2023-12-22T06:30:55;4.00;99.90
11320;DHT22;5715;48.234;14.320;2023-12-22T06:33:42;4.00;99.90
11320;DHT22;5715;48.234;14.320;2023-12-22T06:36:30;4.00;99.90
11320;DHT22;5715;48.234;14.320;2023-12-22T06:39:18;4.00;99.90
11320;DHT22;5715;48.234;14.320;2023-12-22T06:42:06;4.00;99.90
11320;DHT22;5715;48.234;14.320;2023-12-22T06:44:58;4.00;99.90
11320;DHT22;5715;48.234;14.320;2023-12-22T06:47:45;4.00;99.90
11320;DHT22;5715;48.234;14.320;2023-12-22T06:50:33;4.10;99.90
11320;DHT22;5715;48.234;14.320;2023-12-22T06:53:23;4.10;99.90
11320;DHT22;5715;48.234;14.320;2023-12-22T06:56:23;4.10;99.90
11320;DHT22;5715;48.234;14.320;2023-12-22T06:59:14;4.10;99.90
11320;DHT22;5715;48.234;14.320;2023-12-22T07:02:04;4.20;99.90
11320;DHT22;5715;48.234;14.320;2023-12-22T07:08:09;4.20;99.90
11320;DHT22;5715;48.234;14.320;2023-12-22T07:10:57;4.30;99.90
11320;DHT22;5715;48.234;14.320;2023-12-22T07:13:45;4.20;99.90
11320;DHT22;5715;48.234;14.320;2023-12-22T07:16:33;4.20;99.90
11320;DHT22;5715;48.234;14.320;2023-12-22T07:19:21;4.20;99.90
11320;DHT22;5715;48.234;14.320;2023-12-22T07:22:09;4.20;99.90
11320;DHT22;5715;48.234;14.320;2023-12-22T07:24:57;4.20;99.90
11320;DHT22;5715;48.234;14.320;2023-12-22T07:27:45;4.20;99.90
11320;DHT22;5715;48.234;14.320;2023-12-22T07:30:34;4.30;99.90
11320;DHT22;5715;48.234;14.320;2023-12-22T07:33:21;4.30;99.90
11320;DHT22;5715;48.234;14.320;2023-12-22T07:36:09;4.30;99.90
11320;DHT22;5715;48.234;14.320;2023-12-22T07:38:57;4.30;99.90
11320;DHT22;5715;48.234;14.320;2023-12-22T07:41:46;4.30;99.90
11320;DHT22;5715;48.234;14.320;2023-12-22T07:44:35;4.40;99.90
11320;DHT22;5715;48.234;14.320;2023-12-22T07:47:22;4.30;99.90
11320;DHT22;5715;48.234;14.320;2023-12-22T07:50:10;4.40;99.90
11320;DHT22;5715;48.234;14.320;2023-12-22T07:52:58;4.30;99.90
11320;DHT22;5715;48.234;14.320;2023-12-22T07:55:51;4.30;99.90
11320;DHT22;5715;48.234;14.320;2023-12-22T07:58:38;4.30;99.90
11320;DHT22;5715;48.234;14.320;2023-12-22T08:01:26;4.30;99.90
11320;DHT22;5715;48.234;14.320;2023-12-22T08:04:14;4.40;99.90
11320;DHT22;5715;48.234;14.320;2023-12-22T08:07:02;4.40;99.90
11320;DHT22;5715;48.234;14.320;2023-12-22T08:09:49;4.40;99.90
11320;DHT22;5715;48.234;14.320;2023-12-22T08:12:37;4.40;99.90
11320;DHT22;5715;48.234;14.320;2023-12-22T08:15:25;4.40;99.90
11320;DHT22;5715;48.234;14.320;2023-12-22T08:18:22;4.40;99.90
11320;DHT22;5715;48.234;14.320;2023-12-22T08:21:10;4.40;99.90
11320;DHT22;5715;48.234;14.320;2023-12-22T08:24:11;4.50;99.90
11320;DHT22;5715;48.234;14.320;2023-12-22T08:27:08;4.60;99.90
11320;DHT22;5715;48.234;14.320;2023-12-22T08:29:56;4.60;99.90
11320;DHT22;5715;48.234;14.320;2023-12-22T08:32:44;4.60;99.90
11320;DHT22;5715;48.234;14.320;2023-12-22T08:35:32;4.60;99.90
11320;DHT22;5715;48.234;14.320;2023-12-22T08:38:20;4.70;99.90
11320;DHT22;5715;48.234;14.320;2023-12-22T08:41:07;4.70;99.90
11320;DHT22;5715;48.234;14.320;2023-12-22T08:43:56;4.70;99.90
11320;DHT22;5715;48.234;14.320;2023-12-22T08:46:43;4.80;99.90
11320;DHT22;5715;48.234;14.320;2023-12-22T08:49:31;4.80;99.90
11320;DHT22;5715;48.234;14.320;2023-12-22T08:52:19;4.90;99.90
11320;DHT22;5715;48.234;14.320;2023-12-22T08:55:07;4.90;99.90
11320;DHT22;5715;48.234;14.320;2023-12-22T08:57:54;4.90;99.90
11320;DHT22;5715;48.234;14.320;2023-12-22T09:00:49;4.90;99.90
11320;DHT22;5715;48.234;14.320;2023-12-22T09:03:36;4.90;99.90
11320;DHT22;5715;48.234;14.320;2023-12-22T09:06:30;4.90;99.90
11320;DHT22;5715;48.234;14.320;2023-12-22T09:09:18;5.00;99.90
11320;DHT22;5715;48.234;14.320;2023-12-22T09:12:06;5.00;99.90
11320;DHT22;5715;48.234;14.320;2023-12-22T09:14:53;4.90;99.90
11320;DHT22;5715;48.234;14.320;2023-12-22T09:17:41;4.90;99.90
11320;DHT22;5715;48.234;14.320;2023-12-22T09:20:31;4.90;99.90
11320;DHT22;5715;48.234;14.320;2023-12-22T09:23:19;4.90;99.90
11320;DHT22;5715;48.234;14.320;2023-12-22T09:26:08;4.90;99.90
11320;DHT22;5715;48.234;14.320;2023-12-22T09:28:55;4.80;99.90
11320;DHT22;5715;48.234;14.320;2023-12-22T09:31:43;4.80;99.90
11320;DHT22;5715;48.234;14.320;2023-12-22T09:34:31;4.80;99.90
11320;DHT22;5715;48.234;14.320;2023-12-22T09:37:18;4.90;99.90
11320;DHT22;5715;48.234;14.320;2023-12-22T09:40:07;4.90;99.90
11320;DHT22;5715;48.234;14.320;2023-12-22T09:42:58;4.90;99.90
11320;DHT22;5715;48.234;14.320;2023-12-22T09:45:46;4.90;99.90
11320;DHT22;5715;48.234;14.320;2023-12-22T09:48:37;4.80;99.90
11320;DHT22;5715;48.234;14.320;2023-12-22T09:51:27;4.80;99.90
11320;DHT22;5715;48.234;14.320;2023-12-22T09:54:17;4.80;99.90
11320;DHT22;5715;48.234;14.320;2023-12-22T09:57:06;4.80;99.90
11320;DHT22;5715;48.234;14.320;2023-12-22T10:00:10;4.80;99.90
11320;DHT22;5715;48.234;14.320;2023-12-22T10:03:00;4.80;99.90
11320;DHT22;5715;48.234;14.320;2023-12-22T10:05:49;4.80;99.90
11320;DHT22;5715;48.234;14.320;2023-12-22T10:08:38;4.80;99.90
11320;DHT22;5715;48.234;14.320;2023-12-22T10:11:28;4.80;99.90
11320;DHT22;5715;48.234;14.320;2023-12-22T10:14:19;4.80;99.90
11320;DHT22;5715;48.234;14.320;2023-12-22T10:17:09;4.80;99.90
11320;DHT22;5715;48.234;14.320;2023-12-22T10:19:57;4.80;99.90
11320;DHT22;5715;48.234;14.320;2023-12-22T10:22:45;4.80;99.90
11320;DHT22;5715;48.234;14.320;2023-12-22T10:25:33;4.80;99.90
11320;DHT22;5715;48.234;14.320;2023-12-22T10:28:21;4.80;99.90
11320;DHT22;5715;48.234;14.320;2023-12-22T10:31:12;4.90;99.90
11320;DHT22;5715;48.234;14.320;2023-12-22T10:33:59;5.00;99.90
11320;DHT22;5715;48.234;14.320;2023-12-22T10:36:47;5.00;99.90
11320;DHT22;5715;48.234;14.320;2023-12-22T10:39:36;5.10;99.90
11320;DHT22;5715;48.234;14.320;2023-12-22T10:42:27;5.10;99.90
11320;DHT22;5715;48.234;14.320;2023-12-22T10:45:15;5.20;99.90
11320;DHT22;5715;48.234;14.320;2023-12-22T10:48:05;5.30;99.90
11320;DHT22;5715;48.234;14.320;2023-12-22T10:50:53;5.30;99.90
11320;DHT22;5715;48.234;14.320;2023-12-22T10:53:42;5.50;99.90
11320;DHT22;5715;48.234;14.320;2023-12-22T10:56:30;5.60;99.90
11320;DHT22;5715;48.234;14.320;2023-12-22T10:59:22;5.70;99.90
11320;DHT22;5715;48.234;14.320;2023-12-22T11:02:15;5.80;99.90
11320;DHT22;5715;48.234;14.320;2023-12-22T11:05:10;5.90;99.90
11320;DHT22;5715;48.234;14.320;2023-12-22T11:08:00;6.00;99.90
11320;DHT22;5715;48.234;14.320;2023-12-22T11:10:53;6.00;99.90
11320;DHT22;5715;48.234;14.320;2023-12-22T11:13:44;6.00;99.90
11320;DHT22;5715;48.234;14.320;2023-12-22T11:16:34;6.00;99.90
11320;DHT22;5715;48.234;14.320;2023-12-22T11:19:23;6.00;99.90
11320;DHT22;5715;48.234;14.320;2023-12-22T11:22:15;5.90;99.90
11320;DHT22;5715;48.234;14.320;2023-12-22T11:25:05;5.90;99.90
11320;DHT22;5715;48.234;14.320;2023-12-22T11:27:55;5.80;99.90
11320;DHT22;5715;48.234;14.320;2023-12-22T11:30:48;5.70;99.90
11320;DHT22;5715;48.234;14.320;2023-12-22T11:33:47;5.50;99.90
11320;DHT22;5715;48.234;14.320;2023-12-22T11:36:52;5.40;99.90
11320;DHT22;5715;48.234;14.320;2023-12-22T11:39:43;5.20;99.90
11320;DHT22;5715;48.234;14.320;2023-12-22T11:42:36;5.30;99.90
11320;DHT22;5715;48.234;14.320;2023-12-22T11:45:34;5.30;99.90
11320;DHT22;5715;48.234;14.320;2023-12-22T11:48:22;5.40;99.90
11320;DHT22;5715;48.234;14.320;2023-12-22T11:51:13;5.40;99.90
11320;DHT22;5715;48.234;14.320;2023-12-22T11:54:02;5.50;99.90
11320;DHT22;5715;48.234;14.320;2023-12-22T11:56:50;5.60;99.90
11320;DHT22;5715;48.234;14.320;2023-12-22T11:59:37;5.60;99.90
11320;DHT22;5715;48.234;14.320;2023-12-22T12:02:26;5.70;99.90
11320;DHT22;5715;48.234;14.320;2023-12-22T12:05:14;5.70;99.90
11320;DHT22;5715;48.234;14.320;2023-12-22T12:08:08;5.80;99.90
11320;DHT22;5715;48.234;14.320;2023-12-22T12:10:56;5.80;99.90
11320;DHT22;5715;48.234;14.320;2023-12-22T12:13:47;5.90;99.90
11320;DHT22;5715;48.234;14.320;2023-12-22T12:16:38;5.90;99.90
11320;DHT22;5715;48.234;14.320;2023-12-22T12:19:27;5.90;99.90
11320;DHT22;5715;48.234;14.320;2023-12-22T12:22:15;5.80;99.90
11320;DHT22;5715;48.234;14.320;2023-12-22T12:25:07;5.80;99.90
11320;DHT22;5715;48.234;14.320;2023-12-22T12:28:08;5.80;99.90
11320;DHT22;5715;48.234;14.320;2023-12-22T12:31:05;5.80;99.90
11320;DHT22;5715;48.234;14.320;2023-12-22T12:33:53;5.70;99.90
11320;DHT22;5715;48.234;14.320;2023-12-22T12:36:42;5.50;99.90
11320;DHT22;5715;48.234;14.320;2023-12-22T12:39:30;5.30;99.90
11320;DHT22;5715;48.234;14.320;2023-12-22T12:42:22;5.10;99.90
11320;DHT22;5715;48.234;14.320;2023-12-22T12:45:10;4.90;99.90
11320;DHT22;5715;48.234;14.320;2023-12-22T12:47:59;4.70;99.90
11320;DHT22;5715;48.234;14.320;2023-12-22T12:50:50;4.60;99.90
11320;DHT22;5715;48.234;14.320;2023-12-22T12:53:38;4.40;99.90
11320;DHT22;5715;48.234;14.320;2023-12-22T12:56:25;4.30;99.90
11320;DHT22;5715;48.234;14.320;2023-12-22T12:59:15;4.20;99.90
11320;DHT22;5715;48.234;14.320;2023-12-22T13:02:05;4.10;99.90
11320;DHT22;5715;48.234;14.320;2023-12-22T13:04:53;4.00;99.90
11320;DHT22;5715;48.234;14.320;2023-12-22T13:07:41;4.00;99.90
11320;DHT22;5715;48.234;14.320;2023-12-22T13:10:29;4.00;99.90
11320;DHT22;5715;48.234;14.320;2023-12-22T13:13:17;3.90;99.90
11320;DHT22;5715;48.234;14.320;2023-12-22T13:16:05;3.90;99.90
11320;DHT22;5715;48.234;14.320;2023-12-22T13:18:53;3.80;99.90
11320;DHT22;5715;48.234;14.320;2023-12-22T13:21:41;3.80;99.90
11320;DHT22;5715;48.234;14.320;2023-12-22T13:24:29;3.80;99.90
11320;DHT22;5715;48.234;14.320;2023-12-22T13:27:20;3.70;99.90
11320;DHT22;5715;48.234;14.320;2023-12-22T13:30:08;3.70;99.90
11320;DHT22;5715;48.234;14.320;2023-12-22T13:32:55;3.70;99.90
11320;DHT22;5715;48.234;14.320;2023-12-22T13:35:43;3.60;99.90
11320;DHT22;5715;48.234;14.320;2023-12-22T13:38:33;3.60;99.90
11320;DHT22;5715;48.234;14.320;2023-12-22T13:41:21;3.50;99.90
11320;DHT22;5715;48.234;14.320;2023-12-22T13:44:09;3.50;99.90
11320;DHT22;5715;48.234;14.320;2023-12-22T13:46:57;3.40;99.90
11320;DHT22;5715;48.234;14.320;2023-12-22T13:49:51;3.40;99.90
11320;DHT22;5715;48.234;14.320;2023-12-22T13:52:39;3.40;99.90
11320;DHT22;5715;48.234;14.320;2023-12-22T13:55:26;3.30;99.90
11320;DHT22;5715;48.234;14.320;2023-12-22T13:58:14;3.30;99.90
11320;DHT22;5715;48.234;14.320;2023-12-22T14:01:16;3.30;99.90
11320;DHT22;5715;48.234;14.320;2023-12-22T14:04:04;3.20;99.90
11320;DHT22;5715;48.234;14.320;2023-12-22T14:06:52;3.20;99.90
11320;DHT22;5715;48.234;14.320;2023-12-22T14:09:39;3.20;99.90
11320;DHT22;5715;48.234;14.320;2023-12-22T14:12:27;3.20;99.90
11320;DHT22;5715;48.234;14.320;2023-12-22T14:15:21;3.10;99.90
11320;DHT22;5715;48.234;14.320;2023-12-22T14:18:17;3.10;99.90
11320;DHT22;5715;48.234;14.320;2023-12-22T14:21:05;3.10;99.90
11320;DHT22;5715;48.234;14.320;2023-12-22T14:23:52;3.10;99.90
11320;DHT22;5715;48.234;14.320;2023-12-22T14:26:53;3.20;99.90
11320;DHT22;5715;48.234;14.320;2023-12-22T14:29:42;3.10;99.90
11320;DHT22;5715;48.234;14.320;2023-12-22T14:32:29;3.20;99.90
11320;DHT22;5715;48.234;14.320;2023-12-22T14:35:17;3.20;99.90
11320;DHT22;5715;48.234;14.320;2023-12-22T14:38:05;3.20;99.90
11320;DHT22;5715;48.234;14.320;2023-12-22T14:40:53;3.20;99.90
11320;DHT22;5715;48.234;14.320;2023-12-22T14:43:40;3.20;99.90
11320;DHT22;5715;48.234;14.320;2023-12-22T14:46:28;3.20;99.90
11320;DHT22;5715;48.234;14.320;2023-12-22T14:49:16;3.20;99.90
11320;DHT22;5715;48.234;14.320;2023-12-22T14:52:05;3.20;99.90
11320;DHT22;5715;48.234;14.320;2023-12-22T14:54:53;3.20;99.90
11320;DHT22;5715;48.234;14.320;2023-12-22T14:57:40;3.20;99.90
11320;DHT22;5715;48.234;14.320;2023-12-22T15:00:28;3.20;99.90
11320;DHT22;5715;48.234;14.320;2023-12-22T15:03:16;3.20;99.90
11320;DHT22;5715;48.234;14.320;2023-12-22T15:06:03;3.20;99.90
11320;DHT22;5715;48.234;14.320;2023-12-22T15:08:51;3.30;99.90
11320;DHT22;5715;48.234;14.320;2023-12-22T15:11:46;3.30;99.90
11320;DHT22;5715;48.234;14.320;2023-12-22T15:14:33;3.30;99.90
11320;DHT22;5715;48.234;14.320;2023-12-22T15:17:21;3.30;99.90
11320;DHT22;5715;48.234;14.320;2023-12-22T15:20:09;3.30;99.90
11320;DHT22;5715;48.234;14.320;2023-12-22T15:22:59;3.30;99.90
11320;DHT22;5715;48.234;14.320;2023-12-22T15:25:46;3.30;99.90
11320;DHT22;5715;48.234;14.320;2023-12-22T15:28:34;3.30;99.90
11320;DHT22;5715;48.234;14.320;2023-12-22T15:31:21;3.30;99.90
11320;DHT22;5715;48.234;14.320;2023-12-22T15:34:09;3.30;99.90
11320;DHT22;5715;48.234;14.320;2023-12-22T15:36:57;3.30;99.90
11320;DHT22;5715;48.234;14.320;2023-12-22T15:39:44;3.20;99.90
11320;DHT22;5715;48.234;14.320;2023-12-22T15:42:33;3.20;99.90
11320;DHT22;5715;48.234;14.320;2023-12-22T15:45:20;3.20;99.90
11320;DHT22;5715;48.234;14.320;2023-12-22T15:48:08;3.20;99.90
11320;DHT22;5715;48.234;14.320;2023-12-22T15:50:56;3.20;99.90
11320;DHT22;5715;48.234;14.320;2023-12-22T15:53:43;3.20;99.90
11320;DHT22;5715;48.234;14.320;2023-12-22T15:56:31;3.20;99.90
11320;DHT22;5715;48.234;14.320;2023-12-22T15:59:18;3.20;99.90
11320;DHT22;5715;48.234;14.320;2023-12-22T16:02:06;3.20;99.90
11320;DHT22;5715;48.234;14.320;2023-12-22T16:04:54;3.30;99.90
11320;DHT22;5715;48.234;14.320;2023-12-22T16:07:43;3.30;99.90
11320;DHT22;5715;48.234;14.320;2023-12-22T16:10:30;3.30;99.90
11320;DHT22;5715;48.234;14.320;2023-12-22T16:13:18;3.60;99.90
11320;DHT22;5715;48.234;14.320;2023-12-22T16:16:06;3.80;99.90
11320;DHT22;5715;48.234;14.320;2023-12-22T16:18:54;4.00;99.90
11320;DHT22;5715;48.234;14.320;2023-12-22T16:21:41;4.10;99.90
11320;DHT22;5715;48.234;14.320;2023-12-22T16:24:37;4.30;99.90
11320;DHT22;5715;48.234;14.320;2023-12-22T16:27:26;4.50;99.90
11320;DHT22;5715;48.234;14.320;2023-12-22T16:30:14;4.50;99.90
11320;DHT22;5715;48.234;14.320;2023-12-22T16:33:02;4.60;99.90
11320;DHT22;5715;48.234;14.320;2023-12-22T16:35:50;4.70;99.90
11320;DHT22;5715;48.234;14.320;2023-12-22T16:38:37;4.80;99.90
11320;DHT22;5715;48.234;14.320;2023-12-22T16:41:25;4.80;99.90
11320;DHT22;5715;48.234;14.320;2023-12-22T16:44:13;5.00;99.90
11320;DHT22;5715;48.234;14.320;2023-12-22T16:47:01;5.20;99.90
11320;DHT22;5715;48.234;14.320;2023-12-22T16:49:48;5.40;99.90
11320;DHT22;5715;48.234;14.320;2023-12-22T16:52:36;5.40;99.90
11320;DHT22;5715;48.234;14.320;2023-12-22T16:55:24;5.60;99.90
11320;DHT22;5715;48.234;14.320;2023-12-22T16:58:11;5.70;99.90
11320;DHT22;5715;48.234;14.320;2023-12-22T17:00:59;5.80;99.90
11320;DHT22;5715;48.234;14.320;2023-12-22T17:03:50;5.90;99.90
11320;DHT22;5715;48.234;14.320;2023-12-22T17:06:52;6.00;99.90
11320;DHT22;5715;48.234;14.320;2023-12-22T17:09:45;6.10;99.90
11320;DHT22;5715;48.234;14.320;2023-12-22T17:12:33;6.20;99.90
11320;DHT22;5715;48.234;14.320;2023-12-22T17:15:21;6.30;99.90
11320;DHT22;5715;48.234;14.320;2023-12-22T17:18:09;6.30;99.90
11320;DHT22;5715;48.234;14.320;2023-12-22T17:20:57;6.40;99.90
11320;DHT22;5715;48.234;14.320;2023-12-22T17:23:52;6.50;99.90
11320;DHT22;5715;48.234;14.320;2023-12-22T17:26:39;6.70;99.90
11320;DHT22;5715;48.234;14.320;2023-12-22T17:29:27;6.70;99.90
11320;DHT22;5715;48.234;14.320;2023-12-22T17:32:15;6.80;99.90
11320;DHT22;5715;48.234;14.320;2023-12-22T17:35:03;6.90;99.90
11320;DHT22;5715;48.234;14.320;2023-12-22T17:37:51;7.00;99.90
11320;DHT22;5715;48.234;14.320;2023-12-22T17:40:39;7.10;99.90
11320;DHT22;5715;48.234;14.320;2023-12-22T17:43:27;7.00;99.90
11320;DHT22;5715;48.234;14.320;2023-12-22T17:46:14;7.10;99.90
11320;DHT22;5715;48.234;14.320;2023-12-22T17:49:02;7.10;99.90
11320;DHT22;5715;48.234;14.320;2023-12-22T17:51:49;7.10;99.90
11320;DHT22;5715;48.234;14.320;2023-12-22T17:54:37;7.20;99.90
11320;DHT22;5715;48.234;14.320;2023-12-22T17:57:25;7.20;99.90
11320;DHT22;5715;48.234;14.320;2023-12-22T18:00:13;7.20;99.90
11320;DHT22;5715;48.234;14.320;2023-12-22T18:03:01;7.20;99.90
11320;DHT22;5715;48.234;14.320;2023-12-22T18:05:49;7.20;99.90
11320;DHT22;5715;48.234;14.320;2023-12-22T18:08:36;7.20;99.90
11320;DHT22;5715;48.234;14.320;2023-12-22T18:11:24;7.20;99.90